Time;durP1;ratioP1;P1;durP2;ratioP2;P2;SDS_P1;SDS_P2;PMS_P1;PMS_P2;Temp;Humidity;BMP_temperature;BMP_pressure;BME280_temperature;BME280_humidity;BME280_pressure;Samples;Min_cycle;Max_cycle;Signal;HPM_P1;HPM_P2
2022/07/16 00:02:27;;;;;;;1999.90;999.90;;;15.20;99.90;;;;;;5100607;28;20048;-75
2022/07/16 00:04:53;;;;;;;1999.90;999.90;;;15.30;99.90;;;;;;5109795;28;20487;-75
2022/07/16 00:07:19;;;;;;;1999.90;999.90;;;15.30;99.90;;;;;;5109205;28;20049;-75
2022/07/16 00:09:45;;;;;;;1999.90;999.90;;;15.40;99.90;;;;;;5107258;28;20039;-75
2022/07/16 00:12:10;;;;;;;1999.90;999.90;;;15.40;99.90;;;;;;5108748;28;20403;-75
2022/07/16 00:14:36;;;;;;;1999.90;999.90;;;15.40;99.90;;;;;;5098871;28;20131;-75
2022/07/16 00:17:02;;;;;;;1999.90;999.90;;;15.50;99.90;;;;;;5108722;28;20039;-75
2022/07/16 00:19:28;;;;;;;1999.90;999.90;;;15.50;99.90;;;;;;5106042;28;20083;-75
2022/07/16 00:21:55;;;;;;;1999.90;999.90;;;15.50;99.90;;;;;;5093900;28;20440;-75
2022/07/16 00:24:23;;;;;;;1999.90;999.90;;;15.60;99.90;;;;;;5108282;28;20043;-75
2022/07/16 00:26:48;;;;;;;1999.90;999.90;;;15.50;99.90;;;;;;5091077;28;20443;-75
2022/07/16 00:29:18;;;;;;;1999.90;999.90;;;15.60;99.90;;;;;;5100280;28;20078;-75
2022/07/16 00:31:48;;;;;;;1999.90;999.90;;;15.60;99.90;;;;;;5091412;28;20080;-75
2022/07/16 00:34:14;;;;;;;1999.90;999.90;;;15.60;99.90;;;;;;5109174;28;20415;-75
2022/07/16 00:36:40;;;;;;;1999.90;999.90;;;15.60;99.90;;;;;;5091701;28;20071;-75
2022/07/16 00:39:09;;;;;;;1999.90;999.90;;;15.60;99.90;;;;;;5077784;28;20530;-75
2022/07/16 00:41:37;;;;;;;1999.90;999.90;;;15.60;99.90;;;;;;5108889;28;20470;-76
2022/07/16 00:44:08;;;;;;;1999.90;999.90;;;15.70;99.90;;;;;;5107174;28;20043;-78
2022/07/16 00:46:35;;;;;;;1999.90;999.90;;;15.60;99.90;;;;;;5106886;28;20051;-78
2022/07/16 00:49:02;;;;;;;1999.90;999.90;;;15.50;99.90;;;;;;5087346;28;20035;-78
2022/07/16 00:51:28;;;;;;;1999.90;999.90;;;15.50;99.90;;;;;;5107579;28;20051;-77
2022/07/16 00:53:55;;;;;;;1999.90;999.90;;;15.40;99.90;;;;;;5090604;28;20126;-77
2022/07/16 00:56:21;;;;;;;1999.90;999.90;;;15.40;99.90;;;;;;5090046;28;20065;-79
2022/07/16 00:58:48;;;;;;;1999.90;999.90;;;15.40;99.90;;;;;;5106623;28;20055;-78
2022/07/16 01:01:15;;;;;;;1999.90;999.90;;;15.30;99.90;;;;;;5105754;28;20039;-78
2022/07/16 01:03:42;;;;;;;1999.90;999.90;;;15.30;99.90;;;;;;5091197;28;20047;-78
2022/07/16 01:06:09;;;;;;;1999.90;999.90;;;15.20;99.90;;;;;;5089890;28;20058;-78
2022/07/16 01:08:36;;;;;;;1999.90;999.90;;;15.20;99.90;;;;;;5106475;28;20035;-78
2022/07/16 01:11:05;;;;;;;1999.90;999.90;;;15.20;99.90;;;;;;5108061;28;20067;-78
2022/07/16 01:13:32;;;;;;;1999.90;999.90;;;15.10;99.90;;;;;;5085109;28;20039;-77
2022/07/16 01:15:57;;;;;;;1999.90;999.90;;;15.10;99.90;;;;;;5108153;28;20046;-78
2022/07/16 01:18:23;;;;;;;1999.90;999.90;;;15.10;99.90;;;;;;5101718;28;20624;-78
2022/07/16 01:20:49;;;;;;;1999.90;999.90;;;15.10;99.90;;;;;;5099638;28;20082;-78
2022/07/16 01:23:20;;;;;;;1999.90;999.90;;;15.10;99.90;;;;;;5079861;28;20649;-77
2022/07/16 01:25:46;;;;;;;1999.90;999.90;;;15.10;99.90;;;;;;5092347;28;20035;-77
2022/07/16 01:28:11;;;;;;;1999.90;999.90;;;15.10;99.90;;;;;;5107696;28;20086;-77
2022/07/16 01:30:37;;;;;;;1999.90;999.90;;;15.10;99.90;;;;;;5090680;28;20120;-77
2022/07/16 01:33:27;;;;;;;1999.90;999.90;;;15.00;99.90;;;;;;5099842;28;20494;-77
2022/07/16 01:35:56;;;;;;;1999.90;999.90;;;15.00;99.90;;;;;;5105445;28;20035;-78
2022/07/16 01:38:23;;;;;;;1999.90;999.90;;;15.00;99.90;;;;;;5107723;28;20142;-77
2022/07/16 01:40:49;;;;;;;1999.90;999.90;;;15.00;99.90;;;;;;5098546;28;20036;-77
2022/07/16 01:43:16;;;;;;;1999.90;999.90;;;15.00;99.90;;;;;;5107948;28;20543;-77
2022/07/16 01:45:42;;;;;;;1999.90;999.90;;;15.00;99.90;;;;;;5105793;28;20043;-78
2022/07/16 01:48:09;;;;;;;1999.90;999.90;;;14.90;99.90;;;;;;5111701;28;20091;-77
2022/07/16 01:50:36;;;;;;;1999.90;999.90;;;14.90;99.90;;;;;;5091015;28;20503;-78
2022/07/16 01:53:02;;;;;;;1999.90;999.90;;;14.90;99.90;;;;;;5108002;28;20088;-78
2022/07/16 01:55:27;;;;;;;1999.90;999.90;;;14.90;99.90;;;;;;5082329;28;20050;-77
2022/07/16 01:57:53;;;;;;;1999.90;999.90;;;14.90;99.90;;;;;;5081581;28;20040;-77
2022/07/16 02:00:19;;;;;;;1999.90;999.90;;;14.90;99.90;;;;;;5103453;28;20067;-77
2022/07/16 02:02:44;;;;;;;1999.90;999.90;;;14.90;99.90;;;;;;5107531;28;20207;-77
2022/07/16 02:05:12;;;;;;;27.85;18.00;;;15.00;99.90;;;;;;5085746;28;20086;-77
2022/07/16 02:07:37;;;;;;;1999.90;999.90;;;14.90;99.90;;;;;;5090344;28;20084;-77
2022/07/16 02:10:03;;;;;;;1999.90;999.90;;;14.90;99.90;;;;;;5107226;28;20496;-76
2022/07/16 02:12:29;;;;;;;1999.90;999.90;;;14.90;99.90;;;;;;5105691;28;20044;-77
2022/07/16 02:14:54;;;;;;;1999.90;999.90;;;14.80;99.90;;;;;;5080777;28;20051;-77
2022/07/16 02:17:20;;;;;;;1999.90;999.90;;;14.80;99.90;;;;;;5101911;28;20415;-77
2022/07/16 02:19:45;;;;;;;1999.90;999.90;;;14.70;99.90;;;;;;5090155;28;20540;-77
2022/07/16 02:22:11;;;;;;;1999.90;999.90;;;14.70;99.90;;;;;;5085125;28;20048;-77
2022/07/16 02:24:37;;;;;;;1999.90;999.90;;;14.60;99.90;;;;;;5105486;28;20031;-77
2022/07/16 02:27:03;;;;;;;1999.90;999.90;;;14.60;99.90;;;;;;5105221;28;20369;-78
2022/07/16 02:29:28;;;;;;;1999.90;999.90;;;14.60;99.90;;;;;;5106788;28;20172;-78
2022/07/16 02:31:54;;;;;;;1999.90;999.90;;;14.60;99.90;;;;;;5101957;28;20043;-77
2022/07/16 02:34:19;;;;;;;1999.90;999.90;;;14.50;99.90;;;;;;5089364;28;20062;-78
2022/07/16 02:36:45;;;;;;;1999.90;999.90;;;14.50;99.90;;;;;;5093641;28;20048;-77
2022/07/16 02:39:11;;;;;;;1999.90;999.90;;;14.50;99.90;;;;;;5106782;28;20511;-78
2022/07/16 02:41:36;;;;;;;1999.90;999.90;;;14.50;99.90;;;;;;5105942;28;20503;-77
2022/07/16 02:44:02;;;;;;;1999.90;999.90;;;14.40;99.90;;;;;;5097375;28;20043;-78
2022/07/16 02:46:28;;;;;;;1999.90;999.90;;;14.40;99.90;;;;;;5104187;28;20552;-77
2022/07/16 02:48:53;;;;;;;1999.90;999.90;;;14.40;99.90;;;;;;5086508;28;20047;-77
2022/07/16 02:51:19;;;;;;;1999.90;999.90;;;14.40;99.90;;;;;;5078488;28;20511;-77
2022/07/16 02:53:44;;;;;;;1999.90;999.90;;;14.30;99.90;;;;;;5093245;28;20149;-77
2022/07/16 02:56:10;;;;;;;1999.90;999.90;;;14.30;99.90;;;;;;5090790;28;20516;-77
2022/07/16 02:58:36;;;;;;;1999.90;999.90;;;14.30;99.90;;;;;;5107595;28;20042;-77
2022/07/16 03:01:01;;;;;;;1999.90;999.90;;;14.20;99.90;;;;;;5110356;28;20472;-77
2022/07/16 03:03:27;;;;;;;1999.90;999.90;;;14.20;99.90;;;;;;5093427;28;20104;-77
2022/07/16 03:05:53;;;;;;;1999.90;999.90;;;14.10;99.90;;;;;;5107220;28;20474;-78
2022/07/16 03:08:18;;;;;;;1999.90;999.90;;;14.10;99.90;;;;;;5108700;28;20048;-78
2022/07/16 03:10:44;;;;;;;1999.90;999.90;;;14.00;99.90;;;;;;5110258;28;20039;-78
2022/07/16 03:13:10;;;;;;;1999.90;999.90;;;14.00;99.90;;;;;;5106277;28;20039;-77
2022/07/16 03:15:36;;;;;;;1999.90;999.90;;;13.90;99.90;;;;;;5108082;28;20038;-77
2022/07/16 03:18:02;;;;;;;1999.90;999.90;;;13.80;99.90;;;;;;5110255;28;20083;-77
2022/07/16 03:20:27;;;;;;;1999.90;999.90;;;13.80;99.90;;;;;;5108222;28;20048;-78
2022/07/16 03:22:53;;;;;;;1999.90;999.90;;;13.70;99.90;;;;;;5093363;28;20039;-77
2022/07/16 03:25:19;;;;;;;1999.90;999.90;;;13.70;99.90;;;;;;5109185;28;20093;-77
2022/07/16 03:27:44;;;;;;;1999.90;999.90;;;13.60;99.90;;;;;;5107771;28;20038;-77
2022/07/16 03:30:12;;;;;;;1999.90;999.90;;;13.60;99.90;;;;;;5109891;28;20128;-78
2022/07/16 03:32:38;;;;;;;1999.90;999.90;;;13.50;99.90;;;;;;5109834;28;20047;-77
2022/07/16 03:35:06;;;;;;;1999.90;999.90;;;13.40;99.90;;;;;;5106917;28;20400;-77
2022/07/16 03:37:32;;;;;;;1999.90;999.90;;;13.40;99.90;;;;;;5105556;28;20399;-77
2022/07/16 03:39:58;;;;;;;1999.90;999.90;;;13.40;99.90;;;;;;5102870;28;20097;-78
2022/07/16 03:42:23;;;;;;;1999.90;999.90;;;13.40;99.90;;;;;;5092815;28;20556;-77
2022/07/16 03:44:49;;;;;;;1999.90;999.90;;;13.40;99.90;;;;;;5102521;28;20475;-77
2022/07/16 03:47:14;;;;;;;1999.90;999.90;;;13.30;99.90;;;;;;5094303;28;20039;-77
2022/07/16 03:49:40;;;;;;;1999.90;999.90;;;13.30;99.90;;;;;;5096644;28;20591;-78
2022/07/16 03:52:06;;;;;;;1999.90;999.90;;;13.30;99.90;;;;;;5092432;28;20035;-78
2022/07/16 03:54:31;;;;;;;1999.90;999.90;;;13.30;99.90;;;;;;5092160;28;20453;-77
2022/07/16 03:56:57;;;;;;;1999.90;999.90;;;13.30;99.90;;;;;;5092528;28;20039;-77
2022/07/16 03:59:22;;;;;;;1999.90;999.90;;;13.30;99.90;;;;;;5100027;28;20045;-77
2022/07/16 04:01:48;;;;;;;1999.90;999.90;;;13.30;99.90;;;;;;5088935;28;20043;-78
2022/07/16 04:04:14;;;;;;;1999.90;999.90;;;13.30;99.90;;;;;;5088582;28;20035;-77
2022/07/16 04:06:39;;;;;;;1999.90;999.90;;;13.30;99.90;;;;;;5092658;28;20031;-77
2022/07/16 04:09:05;;;;;;;1999.90;999.90;;;13.30;99.90;;;;;;5092374;28;20151;-77
2022/07/16 04:11:31;;;;;;;1999.90;999.90;;;13.30;99.90;;;;;;5102252;28;20039;-77
2022/07/16 04:13:56;;;;;;;1999.90;999.90;;;13.30;99.90;;;;;;5109160;28;20031;-77
2022/07/16 04:16:22;;;;;;;1999.90;999.90;;;13.40;99.90;;;;;;5092307;28;20043;-78
2022/07/16 04:18:48;;;;;;;1999.90;999.90;;;13.40;99.90;;;;;;5106674;28;20044;-77
2022/07/16 04:21:14;;;;;;;1999.90;999.90;;;13.40;99.90;;;;;;5096218;28;20063;-77
2022/07/16 04:23:39;;;;;;;1999.90;999.90;;;13.40;99.90;;;;;;5092045;28;20061;-77
2022/07/16 04:26:05;;;;;;;1999.90;999.90;;;13.50;99.90;;;;;;5088632;28;20031;-77
2022/07/16 04:28:31;;;;;;;1999.90;999.90;;;13.50;99.90;;;;;;5096842;28;20064;-78
2022/07/16 04:30:57;;;;;;;1999.90;999.90;;;13.50;99.90;;;;;;5089161;28;20027;-78
2022/07/16 04:33:22;;;;;;;1999.90;999.90;;;13.60;99.90;;;;;;5092136;28;20031;-78
2022/07/16 04:35:48;;;;;;;1999.90;999.90;;;13.60;99.90;;;;;;5103670;28;20046;-77
2022/07/16 04:38:15;;;;;;;1999.90;999.90;;;13.70;99.90;;;;;;5108769;28;20039;-78
2022/07/16 04:40:40;;;;;;;1999.90;999.90;;;13.70;99.90;;;;;;5090527;28;20079;-78
2022/07/16 04:43:06;;;;;;;1999.90;999.90;;;13.70;99.90;;;;;;5108712;28;20063;-77
2022/07/16 04:45:32;;;;;;;1999.90;999.90;;;13.80;99.90;;;;;;5079266;28;20404;-78
2022/07/16 04:47:57;;;;;;;1999.90;999.90;;;13.90;99.90;;;;;;5105128;28;20499;-77
2022/07/16 04:50:23;;;;;;;1999.90;999.90;;;13.90;99.90;;;;;;5094339;28;20164;-79
2022/07/16 04:52:48;;;;;;;1999.90;999.90;;;13.90;99.90;;;;;;5107036;28;20043;-78
2022/07/16 04:55:14;;;;;;;1999.90;999.90;;;13.90;99.90;;;;;;5088946;28;20336;-77
2022/07/16 04:57:40;;;;;;;1999.90;999.90;;;13.90;99.90;;;;;;5106979;28;20043;-77
2022/07/16 05:00:06;;;;;;;1999.90;999.90;;;13.90;99.90;;;;;;5108142;28;20081;-77
2022/07/16 05:05:19;;;;;;;1999.90;999.90;;;14.00;99.90;;;;;;5108420;28;20071;-77
2022/07/16 05:07:49;;;;;;;1999.90;999.90;;;14.10;99.90;;;;;;5104004;28;20044;-77
2022/07/16 05:10:15;;;;;;;1999.90;999.90;;;14.20;99.90;;;;;;5083897;28;20418;-77
2022/07/16 05:12:41;;;;;;;1999.90;999.90;;;14.20;99.90;;;;;;5101644;28;20050;-77
2022/07/16 05:15:07;;;;;;;1999.90;999.90;;;14.20;99.90;;;;;;5106568;28;20044;-77
2022/07/16 05:17:33;;;;;;;1999.90;999.90;;;14.20;99.90;;;;;;5107272;28;20077;-77
2022/07/16 05:19:58;;;;;;;1999.90;999.90;;;14.30;99.90;;;;;;5091248;28;20514;-77
2022/07/16 05:22:24;;;;;;;1999.90;999.90;;;14.30;99.90;;;;;;5091240;28;20036;-76
2022/07/16 05:24:49;;;;;;;1999.90;999.90;;;14.40;99.90;;;;;;5103884;28;20031;-77
2022/07/16 05:27:16;;;;;;;1999.90;999.90;;;14.40;99.90;;;;;;5101354;28;20487;-76
2022/07/16 05:29:42;;;;;;;1999.90;999.90;;;14.60;99.90;;;;;;5101997;28;20073;-76
2022/07/16 05:32:07;;;;;;;1999.90;999.90;;;14.70;99.90;;;;;;5100590;28;20465;-76
2022/07/16 05:34:33;;;;;;;1999.90;999.90;;;14.70;99.90;;;;;;5102099;28;20046;-77
2022/07/16 05:36:59;;;;;;;1999.90;999.90;;;14.80;99.90;;;;;;5107521;28;20079;-76
2022/07/16 05:39:24;;;;;;;1999.90;999.90;;;14.90;99.90;;;;;;5105862;28;20055;-76
2022/07/16 05:41:50;;;;;;;1999.90;999.90;;;15.00;99.90;;;;;;5089087;28;20432;-77
2022/07/16 05:44:16;;;;;;;1999.90;999.90;;;15.10;99.90;;;;;;5104315;28;20040;-76
2022/07/16 05:46:41;;;;;;;1999.90;999.90;;;15.20;99.90;;;;;;5090676;28;20044;-75
2022/07/16 05:49:07;;;;;;;1999.90;999.90;;;15.40;99.90;;;;;;5098112;28;20066;-76
2022/07/16 05:51:33;;;;;;;1999.90;999.90;;;15.60;99.90;;;;;;5085459;28;20101;-77
2022/07/16 05:53:58;;;;;;;1999.90;999.90;;;15.60;99.90;;;;;;5100510;28;20078;-76
2022/07/16 05:56:24;;;;;;;1999.90;999.90;;;15.60;99.90;;;;;;5090030;28;20503;-77
2022/07/16 05:58:49;;;;;;;1999.90;999.90;;;15.70;99.90;;;;;;5106045;28;20043;-76
2022/07/16 06:01:15;;;;;;;1999.90;999.90;;;15.70;99.90;;;;;;5107635;28;20066;-76
2022/07/16 06:03:41;;;;;;;1999.90;999.90;;;15.80;99.90;;;;;;5088992;28;20447;-77
2022/07/16 06:06:06;;;;;;;1999.90;999.90;;;16.00;99.90;;;;;;5107854;28;20036;-76
2022/07/16 06:08:32;;;;;;;1999.90;999.90;;;16.10;99.90;;;;;;5097811;28;20040;-76
2022/07/16 06:10:59;;;;;;;1999.90;999.90;;;16.30;99.90;;;;;;5107676;28;20479;-76
2022/07/16 06:13:24;;;;;;;1999.90;999.90;;;17.00;99.90;;;;;;5090740;28;20063;-74
2022/07/16 06:15:50;;;;;;;1999.90;999.90;;;17.90;99.90;;;;;;5096278;28;20039;-74
2022/07/16 06:18:16;;;;;;;1999.90;999.90;;;18.70;99.90;;;;;;5106647;28;20046;-77
2022/07/16 06:20:42;;;;;;;1999.90;999.90;;;19.30;99.90;;;;;;5107470;28;20500;-76
2022/07/16 06:23:08;;;;;;;1999.90;999.90;;;19.80;99.90;;;;;;5104803;28;20475;-76
2022/07/16 06:25:33;;;;;;;1999.90;999.90;;;19.80;99.90;;;;;;5094131;28;20122;-74
2022/07/16 06:27:59;;;;;;;1999.90;999.90;;;20.00;99.90;;;;;;5105074;28;20434;-77
2022/07/16 06:30:25;;;;;;;1999.90;999.90;;;19.60;99.90;;;;;;5098344;28;20519;-75
2022/07/16 06:32:50;;;;;;;1999.90;999.90;;;19.80;99.90;;;;;;5109629;28;20089;-76
2022/07/16 06:35:16;;;;;;;1999.90;999.90;;;19.90;99.90;;;;;;5099738;28;20072;-75
2022/07/16 06:37:42;;;;;;;1999.90;999.90;;;20.10;99.90;;;;;;5091976;28;20039;-76
2022/07/16 06:40:08;;;;;;;1999.90;999.90;;;20.40;99.90;;;;;;5093546;28;20039;-76
2022/07/16 06:42:34;;;;;;;1999.90;999.90;;;20.40;99.00;;;;;;5093525;28;20031;-76
2022/07/16 06:45:00;;;;;;;1999.90;999.90;;;20.80;98.10;;;;;;5105264;28;20035;-76
2022/07/16 06:47:26;;;;;;;1999.90;999.90;;;21.00;96.70;;;;;;5105844;28;20598;-76
2022/07/16 06:49:53;;;;;;;1999.90;999.90;;;21.00;95.10;;;;;;5086166;28;20082;-75
2022/07/16 06:52:18;;;;;;;1999.90;999.90;;;20.90;96.60;;;;;;5108063;27;20486;-75
2022/07/16 06:54:44;;;;;;;1999.90;999.90;;;20.90;95.70;;;;;;5115611;27;20177;-76
2022/07/16 06:57:10;;;;;;;1999.90;999.90;;;20.90;93.70;;;;;;5093754;28;20119;-76
2022/07/16 06:59:35;;;;;;;1999.90;999.90;;;21.10;95.80;;;;;;5113490;27;20415;-75
2022/07/16 07:02:01;;;;;;;1999.90;999.90;;;21.30;96.20;;;;;;5115823;27;20031;-76
2022/07/16 07:04:27;;;;;;;1999.90;999.90;;;21.40;94.50;;;;;;5112329;27;20039;-76
2022/07/16 07:06:52;;;;;;;1999.90;999.90;;;21.50;93.40;;;;;;5106551;27;20302;-76
2022/07/16 07:09:18;;;;;;;1999.90;999.90;;;21.50;90.00;;;;;;5123500;27;20043;-77
2022/07/16 07:11:43;;;;;;;1999.90;999.90;;;20.70;90.50;;;;;;5123627;27;20069;-77
2022/07/16 07:14:10;;;;;;;1999.90;999.90;;;19.80;92.30;;;;;;5084375;27;20084;-76
2022/07/16 07:16:36;;;;;;;1999.90;999.90;;;19.30;93.20;;;;;;5096408;27;20467;-76
2022/07/16 07:19:02;;;;;;;1999.90;999.90;;;19.50;94.40;;;;;;5107594;27;20049;-76
2022/07/16 07:21:28;;;;;;;1999.90;999.90;;;20.00;95.10;;;;;;5118428;27;20061;-75
2022/07/16 07:23:54;;;;;;;1999.90;999.90;;;20.40;93.70;;;;;;5096330;27;20039;-75
2022/07/16 07:26:20;;;;;;;1999.90;999.90;;;20.60;92.80;;;;;;5096495;27;20361;-75
2022/07/16 07:28:46;;;;;;;1999.90;999.90;;;21.10;93.10;;;;;;5106932;27;20078;-76
2022/07/16 07:31:12;;;;;;;1999.90;999.90;;;21.50;93.00;;;;;;5095640;27;20067;-75
2022/07/16 07:33:38;;;;;;;1999.90;999.90;;;21.60;91.50;;;;;;5096411;27;20469;-76
2022/07/16 07:36:05;;;;;;;1999.90;999.90;;;21.80;91.70;;;;;;5093818;27;20122;-76
2022/07/16 07:38:31;;;;;;;1999.90;999.90;;;22.20;92.00;;;;;;5115536;27;20499;-75
2022/07/16 07:40:57;;;;;;;1999.90;999.90;;;22.50;88.90;;;;;;5111406;27;20461;-76
2022/07/16 07:43:23;;;;;;;1999.90;999.90;;;21.80;83.90;;;;;;5110776;27;20059;-74
2022/07/16 07:45:48;;;;;;;1999.90;999.90;;;20.80;83.90;;;;;;5096745;27;20049;-75
2022/07/16 07:48:14;;;;;;;1999.90;999.90;;;20.40;88.40;;;;;;5118611;27;20099;-77
2022/07/16 07:50:40;;;;;;;1999.90;999.90;;;20.10;87.20;;;;;;5096117;27;20523;-76
2022/07/16 07:53:06;;;;;;;1999.90;999.90;;;19.40;86.20;;;;;;5098013;27;20043;-76
2022/07/16 07:55:32;;;;;;;1999.90;999.90;;;18.80;87.60;;;;;;5107872;27;20049;-76
2022/07/16 07:57:58;;;;;;;1999.90;999.90;;;18.80;90.30;;;;;;5121221;27;20406;-76
2022/07/16 08:00:25;;;;;;;1999.90;999.90;;;19.40;90.20;;;;;;5107838;27;20039;-76
2022/07/16 08:02:51;;;;;;;1999.90;999.90;;;20.10;90.10;;;;;;5092435;28;20039;-76
2022/07/16 08:05:17;;;;;;;1999.90;999.90;;;20.70;89.70;;;;;;5090722;27;20123;-76
2022/07/16 08:07:44;;;;;;;1999.90;999.90;;;21.00;86.60;;;;;;5094148;27;20035;-74
2022/07/16 08:10:11;;;;;;;1999.90;999.90;;;21.20;85.50;;;;;;5121753;27;20076;-76
2022/07/16 08:12:38;;;;;;;1999.90;999.90;;;21.20;83.80;;;;;;5112209;27;20092;-77
2022/07/16 08:15:05;;;;;;;1999.90;999.90;;;21.60;84.70;;;;;;5103448;27;20043;-76
2022/07/16 08:17:31;;;;;;;1999.90;999.90;;;21.70;83.90;;;;;;5091386;27;20561;-76
2022/07/16 08:19:56;;;;;;;1999.90;999.90;;;21.20;82.90;;;;;;5090422;27;20129;-76
2022/07/16 08:22:22;;;;;;;1999.90;999.90;;;21.00;85.10;;;;;;5087899;27;20072;-75
2022/07/16 08:27:32;;;;;;;1999.90;999.90;;;20.30;86.70;;;;;;5123639;27;20035;-76
2022/07/16 08:29:58;;;;;;;1999.90;999.90;;;20.10;86.50;;;;;;5106354;27;20045;-76
2022/07/16 08:32:23;;;;;;;1999.90;999.90;;;20.00;87.10;;;;;;5104839;27;20077;-76
2022/07/16 08:34:50;;;;;;;1999.90;999.90;;;20.00;90.00;;;;;;5110441;27;20118;-76
2022/07/16 08:37:32;;;;;;;1999.90;999.90;;;20.40;90.20;;;;;;5110043;27;20125;-76
2022/07/16 08:39:58;;;;;;;1999.90;999.90;;;20.60;90.90;;;;;;5100601;27;20047;-75
2022/07/16 08:42:24;;;;;;;1999.90;999.90;;;20.40;90.20;;;;;;5106742;27;20047;-76
2022/07/16 08:44:50;;;;;;;1999.90;999.90;;;20.10;90.30;;;;;;5114531;27;20052;-75
2022/07/16 08:47:17;;;;;;;1999.90;999.90;;;19.70;90.60;;;;;;5098216;27;20050;-77
2022/07/16 08:49:44;;;;;;;1999.90;999.90;;;19.30;90.80;;;;;;5103929;27;21496;-76
2022/07/16 08:52:11;;;;;;;1999.90;999.90;;;19.00;91.80;;;;;;5111545;27;20114;-75
2022/07/16 08:54:38;;;;;;;1999.90;999.90;;;18.90;91.40;;;;;;5105058;27;20049;-76
2022/07/16 08:57:04;;;;;;;1999.90;999.90;;;18.70;91.70;;;;;;5089563;27;20114;-75
2022/07/16 08:59:30;;;;;;;1999.90;999.90;;;18.60;90.90;;;;;;5119197;27;20387;-76
2022/07/16 09:01:56;;;;;;;1999.90;999.90;;;19.00;92.00;;;;;;5116515;27;20064;-76
2022/07/16 09:04:21;;;;;;;1999.90;999.90;;;19.90;91.80;;;;;;5110299;27;20050;-76
2022/07/16 09:06:47;;;;;;;1999.90;999.90;;;20.70;91.70;;;;;;5095024;27;20070;-76
2022/07/16 09:09:13;;;;;;;1999.90;999.90;;;21.40;88.80;;;;;;5114440;27;20046;-76
2022/07/16 09:11:39;;;;;;;1999.90;999.90;;;21.50;85.90;;;;;;5097994;27;20076;-76
2022/07/16 09:14:15;;;;;;;1999.90;999.90;;;21.80;85.20;;;;;;5097563;27;20126;-77
2022/07/16 09:16:41;;;;;;;1999.90;999.90;;;21.60;79.60;;;;;;5098278;27;20043;-76
2022/07/16 09:19:10;;;;;;;1999.90;999.90;;;21.10;82.60;;;;;;5095427;27;20043;-74
2022/07/16 09:21:56;;;;;;;1999.90;999.90;;;21.20;82.90;;;;;;5114243;27;20071;-77
2022/07/16 09:24:31;;;;;;;1999.90;999.90;;;21.50;80.80;;;;;;5109046;27;20440;-76
2022/07/16 09:27:10;;;;;;;1999.90;999.90;;;21.70;77.00;;;;;;5098310;27;20407;-76
2022/07/16 09:29:50;;;;;;;1999.90;999.90;;;22.00;74.80;;;;;;5097392;27;20456;-76
2022/07/16 09:32:39;;;;;;;1999.90;999.90;;;22.40;77.20;;;;;;5100038;27;20413;-76
2022/07/16 09:35:13;;;;;;;1999.90;999.90;;;22.20;73.80;;;;;;5109730;27;20563;-77
2022/07/16 09:37:59;;;;;;;1999.90;999.90;;;21.70;72.50;;;;;;5116907;27;20087;-76
2022/07/16 09:40:40;;;;;;;1999.90;999.90;;;21.60;76.60;;;;;;5096767;27;20069;-76
2022/07/16 09:43:12;;;;;;;1999.90;999.90;;;22.20;78.60;;;;;;5100948;28;20034;-76
2022/07/16 09:45:43;;;;;;;1999.90;999.90;;;22.50;76.60;;;;;;5098451;27;20035;-77
2022/07/16 09:48:20;;;;;;;1999.90;999.90;;;22.40;73.10;;;;;;5096297;28;20035;-75
2022/07/16 09:50:45;;;;;;;1999.90;999.90;;;21.60;74.50;;;;;;5099921;28;20482;-75
2022/07/16 09:53:20;;;;;;;1999.90;999.90;;;21.30;76.80;;;;;;5104964;28;20096;-77
2022/07/16 09:55:57;;;;;;;1999.90;999.90;;;21.40;78.50;;;;;;5096719;27;20041;-76
2022/07/16 09:58:22;;;;;;;1999.90;999.90;;;21.80;76.90;;;;;;5102717;27;20095;-77
2022/07/16 10:00:48;;;;;;;1999.90;999.90;;;22.10;77.70;;;;;;5107115;28;20047;-76
2022/07/16 10:03:14;;;;;;;1999.90;999.90;;;22.20;76.90;;;;;;5108444;27;20047;-77
2022/07/16 10:05:41;;;;;;;1999.90;999.90;;;22.30;76.10;;;;;;5085000;27;20038;-76
2022/07/16 10:08:07;;;;;;;1999.90;999.90;;;22.20;75.50;;;;;;5114952;27;20070;-73
2022/07/16 10:10:32;;;;;;;1999.90;999.90;;;22.20;73.90;;;;;;5097910;27;20482;-75
2022/07/16 10:12:58;;;;;;;1999.90;999.90;;;21.90;73.70;;;;;;5126054;27;20023;-76
2022/07/16 10:15:24;;;;;;;1999.90;999.90;;;21.80;75.40;;;;;;5096289;27;20126;-77
2022/07/16 10:17:49;;;;;;;1999.90;999.90;;;22.00;76.00;;;;;;5116192;27;20042;-75
2022/07/16 10:20:19;;;;;;;1999.90;999.90;;;22.20;75.20;;;;;;5113881;27;20047;-77
2022/07/16 10:22:49;;;;;;;1999.90;999.90;;;21.70;75.00;;;;;;5099856;27;20071;-75
2022/07/16 10:25:26;;;;;;;1999.90;999.90;;;21.30;75.50;;;;;;5108995;27;20076;-75
2022/07/16 10:27:53;;;;;;;1999.90;999.90;;;21.20;76.00;;;;;;5113204;27;20031;-74
2022/07/16 10:30:21;;;;;;;1999.90;999.90;;;21.20;77.40;;;;;;5097318;27;20039;-75
2022/07/16 10:32:59;;;;;;;1999.90;999.90;;;21.50;78.60;;;;;;5096963;27;20046;-76
2022/07/16 10:35:33;;;;;;;1999.90;999.90;;;21.50;77.60;;;;;;5114958;27;20047;-75
2022/07/16 10:38:06;;;;;;;1999.90;999.90;;;21.30;76.80;;;;;;5113412;27;20045;-75
2022/07/16 10:40:32;;;;;;;1999.90;999.90;;;21.10;77.10;;;;;;5111142;27;20570;-76
2022/07/16 10:43:14;;;;;;;1999.90;999.90;;;20.70;76.50;;;;;;5099815;27;20045;-76
2022/07/16 10:45:55;;;;;;;1999.90;999.90;;;20.60;79.20;;;;;;5098698;27;20033;-77
2022/07/16 10:48:29;;;;;;;1999.90;999.90;;;20.90;80.00;;;;;;5094480;28;20040;-76
2022/07/16 10:51:14;;;;;;;1999.90;999.90;;;21.10;77.00;;;;;;5103093;27;20055;-76
2022/07/16 10:53:58;;;;;;;1999.90;999.90;;;20.90;78.10;;;;;;5123774;27;20085;-75
2022/07/16 10:56:51;;;;;;;1999.90;999.90;;;21.00;79.20;;;;;;5112891;27;20070;-74
2022/07/16 10:59:23;;;;;;;1999.90;999.90;;;21.40;78.60;;;;;;5106409;27;20122;-74
2022/07/16 11:01:52;;;;;;;1999.90;999.90;;;21.30;76.30;;;;;;5095342;27;20039;-75
2022/07/16 11:04:27;;;;;;;1999.90;999.90;;;21.40;77.30;;;;;;5115037;27;20125;-76
2022/07/16 11:06:52;;;;;;;1999.90;999.90;;;21.10;77.00;;;;;;5111126;27;20481;-76
2022/07/16 11:09:32;;;;;;;1999.90;999.90;;;21.10;79.10;;;;;;5113724;27;20117;-75
2022/07/16 11:12:21;;;;;;;1999.90;999.90;;;21.40;77.40;;;;;;5095487;27;20070;-76
2022/07/16 11:14:51;;;;;;;1999.90;999.90;;;21.60;77.80;;;;;;5096982;27;20105;-75
2022/07/16 11:17:22;;;;;;;1999.90;999.90;;;21.60;76.10;;;;;;5096975;27;20046;-75
2022/07/16 11:19:55;;;;;;;1999.90;999.90;;;21.60;78.40;;;;;;5121567;27;20085;-76
2022/07/16 11:22:26;;;;;;;1999.90;999.90;;;21.80;76.60;;;;;;5120171;27;20069;-76
2022/07/16 11:25:00;;;;;;;1999.90;999.90;;;22.00;75.30;;;;;;5091970;28;20092;-75
2022/07/16 11:27:28;;;;;;;1999.90;999.90;;;22.00;73.90;;;;;;5098573;27;20427;-76
2022/07/16 11:29:56;;;;;;;1999.90;999.90;;;22.10;76.10;;;;;;5112450;27;20047;-75
2022/07/16 11:32:22;;;;;;;1999.90;999.90;;;22.30;74.20;;;;;;5096239;27;20126;-75
2022/07/16 11:34:48;;;;;;;1999.90;999.90;;;22.30;73.70;;;;;;5113619;27;20130;-76
2022/07/16 11:37:14;;;;;;;1999.90;999.90;;;22.40;73.10;;;;;;5113424;27;20104;-75
2022/07/16 11:39:40;;;;;;;1999.90;999.90;;;22.40;71.20;;;;;;5087042;27;20047;-76
2022/07/16 11:42:06;;;;;;;1999.90;999.90;;;22.40;72.50;;;;;;5092577;27;20460;-76
2022/07/16 11:44:34;;;;;;;1999.90;999.90;;;22.30;71.70;;;;;;5095362;27;20154;-76
2022/07/16 11:47:02;;;;;;;1999.90;999.90;;;21.80;70.60;;;;;;5107190;27;20062;-75
2022/07/16 11:49:32;;;;;;;1999.90;999.90;;;21.30;73.70;;;;;;5123172;27;20104;-75
2022/07/16 11:52:06;;;;;;;1999.90;999.90;;;21.50;72.90;;;;;;5109352;27;20047;-76
2022/07/16 11:54:37;;;;;;;1999.90;999.90;;;21.50;71.20;;;;;;5107608;27;20039;-76
2022/07/16 11:57:03;;;;;;;1999.90;999.90;;;21.70;71.50;;;;;;5092101;27;20478;-75
2022/07/16 11:59:32;;;;;;;1999.90;999.90;;;21.90;72.20;;;;;;5087593;28;20500;-76
2022/07/16 12:02:07;;;;;;;1999.90;999.90;;;21.70;70.10;;;;;;5105913;27;20042;-75
2022/07/16 12:04:44;;;;;;;1999.90;999.90;;;21.70;69.90;;;;;;5100712;28;20036;-75
2022/07/16 12:07:13;;;;;;;1999.90;999.90;;;21.90;71.30;;;;;;5101876;27;21035;-76